AOS weather

Amook Bay Seaplane Base
Amook Bay, Alaska, United States

Public forecast

Using degrees Fahrenheit for public forecast. Weather courtesy of forecast.io.

Closest aviation weather report (METAR) to Amook Bay Seaplane Base

Closest report is Akhiok Airport, 34.2 nm (63.3 km) SSW. Retrieved 2020/02/23 03:56 UTC (36 minutes ago):

PAKH 230356Z AUTO 9SM -SN FEW025 BKN033 OVC039 A3007 RMK AO2 SNB43 SLPNO P0000 FZRANO

Closest aviation forecast (TAF) to Amook Bay Seaplane Base

Closest forecast is Kodiak Airport, 45.7 nm (84.6 km) ENE. Retrieved 2020-02-23 00:42 UTC (4 hours ago):

TAF PADQ 222340Z 2300/2324 28015G22KT P6SM FEW050 SCT100 TEMPO 2300/2304 2SM -SHSN BKN025